sensor_id;sensor_type;location;lat;lon;timestamp;pressure;altitude;pressure_sealevel;temperature;humidity
65666;BME280;52365;47.464;18.976;2023-05-11T00:00:17;99886.41;;;15.26;45.08
65666;BME280;52365;47.464;18.976;2023-05-11T00:00:38;99888.53;;;15.48;44.57
65666;BME280;52365;47.464;18.976;2023-05-11T00:01:07;99886.44;;;15.64;44.18
65666;BME280;52365;47.464;18.976;2023-05-11T00:01:28;99882.97;;;15.63;43.94
65666;BME280;52365;47.464;18.976;2023-05-11T00:01:49;99883.97;;;15.28;44.56
65666;BME280;52365;47.464;18.976;2023-05-11T00:02:11;99888.41;;;15.31;44.64
65666;BME280;52365;47.464;18.976;2023-05-11T00:02:32;99884.94;;;15.25;44.74
65666;BME280;52365;47.464;18.976;2023-05-11T00:02:48;99889.72;;;15.10;45.11
65666;BME280;52365;47.464;18.976;2023-05-11T00:03:09;99890.88;;;15.29;44.88
65666;BME280;52365;47.464;18.976;2023-05-11T00:03:30;99891.84;;;15.26;44.87
65666;BME280;52365;47.464;18.976;2023-05-11T00:03:52;99881.19;;;15.23;45.59
65666;BME280;52365;47.464;18.976;2023-05-11T00:04:13;99882.88;;;15.15;45.77
65666;BME280;52365;47.464;18.976;2023-05-11T00:04:29;99888.66;;;15.28;45.67
65666;BME280;52365;47.464;18.976;2023-05-11T00:04:50;99887.25;;;15.06;45.64
65666;BME280;52365;47.464;18.976;2023-05-11T00:05:11;99883.34;;;15.13;45.83
65666;BME280;52365;47.464;18.976;2023-05-11T00:05:32;99886.87;;;15.19;45.75
65666;BME280;52365;47.464;18.976;2023-05-11T00:05:53;99890.72;;;15.07;45.75
65666;BME280;52365;47.464;18.976;2023-05-11T00:06:14;99880.63;;;15.13;45.52
65666;BME280;52365;47.464;18.976;2023-05-11T00:06:35;99890.84;;;15.24;45.31
65666;BME280;52365;47.464;18.976;2023-05-11T00:06:56;99883.34;;;15.13;45.13
65666;BME280;52365;47.464;18.976;2023-05-11T00:07:17;99884.25;;;15.36;44.85
65666;BME280;52365;47.464;18.976;2023-05-11T00:07:38;99879.28;;;15.29;44.86
65666;BME280;52365;47.464;18.976;2023-05-11T00:07:59;99885.97;;;15.33;44.76
65666;BME280;52365;47.464;18.976;2023-05-11T00:08:21;99877.00;;;15.22;44.99
65666;BME280;52365;47.464;18.976;2023-05-11T00:08:42;99871.53;;;14.84;45.64
65666;BME280;52365;47.464;18.976;2023-05-11T00:09:03;99877.00;;;14.64;46.22
65666;BME280;52365;47.464;18.976;2023-05-11T00:09:24;99884.72;;;14.71;46.19
65666;BME280;52365;47.464;18.976;2023-05-11T00:09:45;99879.66;;;14.58;46.55
65666;BME280;52365;47.464;18.976;2023-05-11T00:10:06;99880.97;;;14.69;46.55
65666;BME280;52365;47.464;18.976;2023-05-11T00:10:28;99883.12;;;14.85;46.18
65666;BME280;52365;47.464;18.976;2023-05-11T00:10:49;99880.81;;;15.04;45.80
65666;BME280;52365;47.464;18.976;2023-05-11T00:11:10;99875.94;;;14.82;46.02
65666;BME280;52365;47.464;18.976;2023-05-11T00:11:31;99883.69;;;14.95;45.83
65666;BME280;52365;47.464;18.976;2023-05-11T00:11:52;99882.75;;;14.98;45.72
65666;BME280;52365;47.464;18.976;2023-05-11T00:12:13;99873.22;;;15.14;45.50
65666;BME280;52365;47.464;18.976;2023-05-11T00:12:29;99879.19;;;15.18;45.37
65666;BME280;52365;47.464;18.976;2023-05-11T00:12:50;99878.63;;;15.08;45.44
65666;BME280;52365;47.464;18.976;2023-05-11T00:13:11;99882.78;;;15.35;45.00
65666;BME280;52365;47.464;18.976;2023-05-11T00:13:32;99869.84;;;15.61;44.43
65666;BME280;52365;47.464;18.976;2023-05-11T00:13:54;99883.81;;;15.43;44.46
65666;BME280;52365;47.464;18.976;2023-05-11T00:14:15;99875.88;;;15.40;44.49
65666;BME280;52365;47.464;18.976;2023-05-11T00:14:36;99877.88;;;15.39;44.50
65666;BME280;52365;47.464;18.976;2023-05-11T00:14:57;99879.75;;;15.27;44.75
65666;BME280;52365;47.464;18.976;2023-05-11T00:15:18;99880.41;;;14.85;45.52
65666;BME280;52365;47.464;18.976;2023-05-11T00:15:39;99881.81;;;15.06;45.52
65666;BME280;52365;47.464;18.976;2023-05-11T00:16:00;99875.72;;;15.17;45.20
65666;BME280;52365;47.464;18.976;2023-05-11T00:16:21;99877.53;;;14.94;45.55
65666;BME280;52365;47.464;18.976;2023-05-11T00:16:42;99878.91;;;14.84;45.96
65666;BME280;52365;47.464;18.976;2023-05-11T00:17:03;99877.19;;;14.86;45.96
65666;BME280;52365;47.464;18.976;2023-05-11T00:17:24;99877.59;;;15.05;45.63
65666;BME280;52365;47.464;18.976;2023-05-11T00:17:45;99874.53;;;14.92;45.86
65666;BME280;52365;47.464;18.976;2023-05-11T00:18:06;99872.31;;;14.91;45.83
65666;BME280;52365;47.464;18.976;2023-05-11T00:18:22;99874.81;;;14.94;46.01
65666;BME280;52365;47.464;18.976;2023-05-11T00:18:43;99878.94;;;15.16;45.53
65666;BME280;52365;47.464;18.976;2023-05-11T00:19:04;99876.97;;;15.16;45.18
65666;BME280;52365;47.464;18.976;2023-05-11T00:19:25;99876.28;;;15.27;45.12
65666;BME280;52365;47.464;18.976;2023-05-11T00:19:47;99880.84;;;15.41;44.83
65666;BME280;52365;47.464;18.976;2023-05-11T00:20:09;99873.38;;;15.36;44.83
65666;BME280;52365;47.464;18.976;2023-05-11T00:20:30;99874.94;;;15.43;44.67
65666;BME280;52365;47.464;18.976;2023-05-11T00:20:51;99879.81;;;15.33;44.91
65666;BME280;52365;47.464;18.976;2023-05-11T00:21:12;99872.66;;;15.35;44.89
65666;BME280;52365;47.464;18.976;2023-05-11T00:21:33;99872.88;;;15.32;44.93
65666;BME280;52365;47.464;18.976;2023-05-11T00:21:54;99875.53;;;15.26;45.09
65666;BME280;52365;47.464;18.976;2023-05-11T00:22:15;99878.44;;;15.17;45.26
65666;BME280;52365;47.464;18.976;2023-05-11T00:22:36;99881.50;;;15.30;45.12
65666;BME280;52365;47.464;18.976;2023-05-11T00:22:57;99877.84;;;15.33;45.03
65666;BME280;52365;47.464;18.976;2023-05-11T00:23:18;99878.25;;;15.26;45.34
65666;BME280;52365;47.464;18.976;2023-05-11T00:23:39;99879.53;;;15.31;45.26
65666;BME280;52365;47.464;18.976;2023-05-11T00:24:00;99883.50;;;15.35;45.13
65666;BME280;52365;47.464;18.976;2023-05-11T00:24:21;99881.66;;;15.53;44.81
65666;BME280;52365;47.464;18.976;2023-05-11T00:24:42;99876.00;;;15.56;44.63
65666;BME280;52365;47.464;18.976;2023-05-11T00:25:04;99885.03;;;15.36;45.01
65666;BME280;52365;47.464;18.976;2023-05-11T00:25:25;99868.78;;;15.48;44.84
65666;BME280;52365;47.464;18.976;2023-05-11T00:25:46;99879.03;;;15.64;44.51
65666;BME280;52365;47.464;18.976;2023-05-11T00:26:07;99877.47;;;15.57;44.64
65666;BME280;52365;47.464;18.976;2023-05-11T00:26:28;99880.47;;;15.59;44.54
65666;BME280;52365;47.464;18.976;2023-05-11T00:26:50;99885.13;;;15.22;45.22
65666;BME280;52365;47.464;18.976;2023-05-11T00:27:06;99882.00;;;14.97;45.83
65666;BME280;52365;47.464;18.976;2023-05-11T00:27:27;99874.84;;;15.00;46.00
65666;BME280;52365;47.464;18.976;2023-05-11T00:27:48;99878.59;;;15.40;45.26
65666;BME280;52365;47.464;18.976;2023-05-11T00:28:04;99880.56;;;15.39;45.20
65666;BME280;52365;47.464;18.976;2023-05-11T00:28:26;99871.50;;;15.48;45.05
65666;BME280;52365;47.464;18.976;2023-05-11T00:28:47;99875.25;;;15.56;44.98
65666;BME280;52365;47.464;18.976;2023-05-11T00:29:08;99879.06;;;15.32;45.41
65666;BME280;52365;47.464;18.976;2023-05-11T00:29:29;99875.81;;;15.28;45.82
65666;BME280;52365;47.464;18.976;2023-05-11T00:29:50;99881.72;;;15.27;45.61
65666;BME280;52365;47.464;18.976;2023-05-11T00:30:12;99880.66;;;15.19;45.75
65666;BME280;52365;47.464;18.976;2023-05-11T00:30:34;99875.84;;;15.34;45.63
65666;BME280;52365;47.464;18.976;2023-05-11T00:30:56;99880.44;;;15.22;45.69
65666;BME280;52365;47.464;18.976;2023-05-11T00:31:17;99874.59;;;15.29;45.42
65666;BME280;52365;47.464;18.976;2023-05-11T00:31:38;99884.41;;;15.21;45.67
65666;BME280;52365;47.464;18.976;2023-05-11T00:31:59;99880.09;;;15.41;45.37
65666;BME280;52365;47.464;18.976;2023-05-11T00:32:20;99883.97;;;15.28;45.56
65666;BME280;52365;47.464;18.976;2023-05-11T00:32:42;99880.00;;;15.24;45.58
65666;BME280;52365;47.464;18.976;2023-05-11T00:33:03;99874.13;;;15.05;46.08
65666;BME280;52365;47.464;18.976;2023-05-11T00:33:25;99874.94;;;15.11;46.15
65666;BME280;52365;47.464;18.976;2023-05-11T00:33:46;99882.09;;;15.14;46.04
65666;BME280;52365;47.464;18.976;2023-05-11T00:34:07;99880.56;;;15.02;46.31
65666;BME280;52365;47.464;18.976;2023-05-11T00:34:28;99871.50;;;15.10;46.26
65666;BME280;52365;47.464;18.976;2023-05-11T00:34:49;99878.19;;;15.15;46.01
65666;BME280;52365;47.464;18.976;2023-05-11T00:35:11;99879.63;;;15.10;46.32
65666;BME280;52365;47.464;18.976;2023-05-11T00:35:32;99885.06;;;15.10;46.40
65666;BME280;52365;47.464;18.976;2023-05-11T00:35:53;99880.63;;;15.13;46.29
65666;BME280;52365;47.464;18.976;2023-05-11T00:36:14;99885.28;;;15.44;45.66
65666;BME280;52365;47.464;18.976;2023-05-11T00:36:35;99883.62;;;15.15;46.06
65666;BME280;52365;47.464;18.976;2023-05-11T00:36:59;99883.44;;;15.24;46.01
65666;BME280;52365;47.464;18.976;2023-05-11T00:37:20;99876.00;;;15.19;46.04
65666;BME280;52365;47.464;18.976;2023-05-11T00:37:37;99878.09;;;15.04;46.41
65666;BME280;52365;47.464;18.976;2023-05-11T00:37:59;99877.53;;;14.94;46.77
65666;BME280;52365;47.464;18.976;2023-05-11T00:38:20;99878.00;;;14.93;46.64
65666;BME280;52365;47.464;18.976;2023-05-11T00:38:41;99879.25;;;15.23;46.16
65666;BME280;52365;47.464;18.976;2023-05-11T00:39:02;99877.72;;;14.91;46.66
65666;BME280;52365;47.464;18.976;2023-05-11T00:39:23;99869.22;;;14.77;47.10
65666;BME280;52365;47.464;18.976;2023-05-11T00:39:44;99877.56;;;15.00;46.66
65666;BME280;52365;47.464;18.976;2023-05-11T00:40:06;99874.75;;;14.89;46.81
65666;BME280;52365;47.464;18.976;2023-05-11T00:40:29;99873.63;;;14.75;47.16
65666;BME280;52365;47.464;18.976;2023-05-11T00:40:50;99874.09;;;14.99;46.90
65666;BME280;52365;47.464;18.976;2023-05-11T00:41:12;99873.22;;;14.82;46.91
65666;BME280;52365;47.464;18.976;2023-05-11T00:41:33;99874.69;;;14.83;46.89
65666;BME280;52365;47.464;18.976;2023-05-11T00:41:54;99884.09;;;15.14;46.47
65666;BME280;52365;47.464;18.976;2023-05-11T00:42:15;99867.06;;;15.13;46.17
65666;BME280;52365;47.464;18.976;2023-05-11T00:42:36;99880.94;;;14.89;46.79
65666;BME280;52365;47.464;18.976;2023-05-11T00:42:57;99870.16;;;15.00;46.68
65666;BME280;52365;47.464;18.976;2023-05-11T00:43:18;99877.09;;;15.01;46.67
65666;BME280;52365;47.464;18.976;2023-05-11T00:43:39;99874.31;;;14.96;46.90
65666;BME280;52365;47.464;18.976;2023-05-11T00:44:00;99869.16;;;14.98;46.88
65666;BME280;52365;47.464;18.976;2023-05-11T00:44:21;99872.06;;;14.89;47.19
65666;BME280;52365;47.464;18.976;2023-05-11T00:44:42;99875.88;;;14.76;47.47
65666;BME280;52365;47.464;18.976;2023-05-11T00:45:04;99876.66;;;14.82;47.34
65666;BME280;52365;47.464;18.976;2023-05-11T00:45:25;99869.69;;;15.02;46.99
65666;BME280;52365;47.464;18.976;2023-05-11T00:45:47;99863.37;;;14.84;47.15
65666;BME280;52365;47.464;18.976;2023-05-11T00:46:09;99860.88;;;14.81;47.43
65666;BME280;52365;47.464;18.976;2023-05-11T00:46:30;99875.06;;;14.96;47.20
65666;BME280;52365;47.464;18.976;2023-05-11T00:46:46;99872.06;;;14.89;47.14
65666;BME280;52365;47.464;18.976;2023-05-11T00:47:07;99872.59;;;14.93;47.16
65666;BME280;52365;47.464;18.976;2023-05-11T00:47:29;99875.03;;;15.22;46.61
65666;BME280;52365;47.464;18.976;2023-05-11T00:47:50;99868.59;;;15.20;46.34
65666;BME280;52365;47.464;18.976;2023-05-11T00:48:11;99867.03;;;15.07;46.41
65666;BME280;52365;47.464;18.976;2023-05-11T00:48:32;99863.28;;;15.05;46.63
65666;BME280;52365;47.464;18.976;2023-05-11T00:48:54;99863.25;;;14.99;46.84
65666;BME280;52365;47.464;18.976;2023-05-11T00:49:15;99869.91;;;14.72;47.44
65666;BME280;52365;47.464;18.976;2023-05-11T00:49:37;99872.22;;;14.79;47.54
65666;BME280;52365;47.464;18.976;2023-05-11T00:49:58;99869.09;;;14.66;47.75
65666;BME280;52365;47.464;18.976;2023-05-11T00:50:19;99867.56;;;14.59;47.96
65666;BME280;52365;47.464;18.976;2023-05-11T00:50:41;99868.31;;;14.40;48.29
65666;BME280;52365;47.464;18.976;2023-05-11T00:51:03;99868.19;;;14.28;48.74
65666;BME280;52365;47.464;18.976;2023-05-11T00:51:24;99866.81;;;14.39;48.64
65666;BME280;52365;47.464;18.976;2023-05-11T00:51:45;99869.69;;;14.29;48.72
65666;BME280;52365;47.464;18.976;2023-05-11T00:52:07;99865.22;;;14.26;48.84
65666;BME280;52365;47.464;18.976;2023-05-11T00:52:28;99866.81;;;14.39;48.64
65666;BME280;52365;47.464;18.976;2023-05-11T00:52:49;99870.44;;;14.50;48.33
65666;BME280;52365;47.464;18.976;2023-05-11T00:53:10;99861.25;;;14.48;48.07
65666;BME280;52365;47.464;18.976;2023-05-11T00:53:32;99865.88;;;14.62;47.87
65666;BME280;52365;47.464;18.976;2023-05-11T00:53:54;99872.09;;;14.48;48.05
65666;BME280;52365;47.464;18.976;2023-05-11T00:54:15;99870.63;;;14.67;47.66
65666;BME280;52365;47.464;18.976;2023-05-11T00:54:36;99870.28;;;14.59;47.78
65666;BME280;52365;47.464;18.976;2023-05-11T00:54:57;99872.06;;;14.63;47.97
65666;BME280;52365;47.464;18.976;2023-05-11T00:55:18;99868.06;;;14.58;48.02
65666;BME280;52365;47.464;18.976;2023-05-11T00:55:41;99873.47;;;14.58;47.83
65666;BME280;52365;47.464;18.976;2023-05-11T00:56:02;99870.09;;;14.63;47.81
65666;BME280;52365;47.464;18.976;2023-05-11T00:56:18;99868.72;;;14.79;47.38
65666;BME280;52365;47.464;18.976;2023-05-11T00:56:43;99870.53;;;14.87;47.27
65666;BME280;52365;47.464;18.976;2023-05-11T00:57:04;99864.44;;;14.93;47.09
65666;BME280;52365;47.464;18.976;2023-05-11T00:57:26;99867.66;;;14.97;47.00
65666;BME280;52365;47.464;18.976;2023-05-11T00:57:47;99860.12;;;14.80;47.18
65666;BME280;52365;47.464;18.976;2023-05-11T00:58:08;99866.09;;;14.84;47.22
65666;BME280;52365;47.464;18.976;2023-05-11T00:58:30;99866.78;;;14.79;47.51
65666;BME280;52365;47.464;18.976;2023-05-11T00:58:51;99867.62;;;14.91;47.44
65666;BME280;52365;47.464;18.976;2023-05-11T00:59:12;99870.16;;;14.74;47.42
65666;BME280;52365;47.464;18.976;2023-05-11T00:59:28;99862.78;;;14.75;48.00
65666;BME280;52365;47.464;18.976;2023-05-11T00:59:50;99867.53;;;14.80;47.56
65666;BME280;52365;47.464;18.976;2023-05-11T01:00:11;99861.78;;;14.72;47.65
65666;BME280;52365;47.464;18.976;2023-05-11T01:00:32;99866.38;;;14.66;48.15
65666;BME280;52365;47.464;18.976;2023-05-11T01:00:53;99869.22;;;14.77;47.83
65666;BME280;52365;47.464;18.976;2023-05-11T01:01:14;99859.66;;;14.82;47.50
65666;BME280;52365;47.464;18.976;2023-05-11T01:01:32;99859.91;;;14.84;47.67
65666;BME280;52365;47.464;18.976;2023-05-11T01:01:55;99867.28;;;15.09;47.05
65666;BME280;52365;47.464;18.976;2023-05-11T01:02:17;99859.50;;;14.97;47.09
65666;BME280;52365;47.464;18.976;2023-05-11T01:02:38;99859.69;;;14.87;47.35
65666;BME280;52365;47.464;18.976;2023-05-11T01:03:00;99871.31;;;15.20;46.86
65666;BME280;52365;47.464;18.976;2023-05-11T01:03:21;99865.91;;;15.25;46.47
65666;BME280;52365;47.464;18.976;2023-05-11T01:03:43;99856.50;;;15.21;46.68
65666;BME280;52365;47.464;18.976;2023-05-11T01:04:05;99861.84;;;15.41;46.37
65666;BME280;52365;47.464;18.976;2023-05-11T01:04:27;99862.31;;;15.40;46.20
65666;BME280;52365;47.464;18.976;2023-05-11T01:04:43;99855.00;;;15.57;45.68
65666;BME280;52365;47.464;18.976;2023-05-11T01:05:05;99857.91;;;15.42;45.96
65666;BME280;52365;47.464;18.976;2023-05-11T01:05:33;99859.06;;;15.35;46.03
65666;BME280;52365;47.464;18.976;2023-05-11T01:07:16;99859.28;;;15.32;46.37
65666;BME280;52365;47.464;18.976;2023-05-11T01:08:22;99856.47;;;15.52;45.70
65666;BME280;52365;47.464;18.976;2023-05-11T01:08:49;99853.91;;;15.38;46.00
65666;BME280;52365;47.464;18.976;2023-05-11T01:10:23;99865.53;;;15.44;46.28
65666;BME280;52365;47.464;18.976;2023-05-11T01:10:55;99862.78;;;15.32;46.59
65666;BME280;52365;47.464;18.976;2023-05-11T01:11:42;99860.38;;;15.46;46.96
65666;BME280;52365;47.464;18.976;2023-05-11T01:12:36;99855.94;;;15.48;46.16
65666;BME280;52365;47.464;18.976;2023-05-11T01:13:42;99868.72;;;15.36;46.27
65666;BME280;52365;47.464;18.976;2023-05-11T01:14:11;99857.19;;;15.47;46.01
65666;BME280;52365;47.464;18.976;2023-05-11T01:14:44;99861.50;;;15.65;45.65
65666;BME280;52365;47.464;18.976;2023-05-11T01:15:12;99862.91;;;15.55;45.70
65666;BME280;52365;47.464;18.976;2023-05-11T01:15:39;99865.00;;;15.34;46.14
65666;BME280;52365;47.464;18.976;2023-05-11T01:16:20;99862.38;;;15.14;46.57
65666;BME280;52365;47.464;18.976;2023-05-11T01:16:43;99866.00;;;15.05;46.75
65666;BME280;52365;47.464;18.976;2023-05-11T01:17:10;99864.63;;;15.15;46.91
65666;BME280;52365;47.464;18.976;2023-05-11T01:18:17;99858.31;;;14.98;46.92
65666;BME280;52365;47.464;18.976;2023-05-11T01:18:54;99852.50;;;15.10;46.78
65666;BME280;52365;47.464;18.976;2023-05-11T01:19:42;99861.50;;;15.28;46.38
65666;BME280;52365;47.464;18.976;2023-05-11T01:20:06;99858.72;;;15.22;46.46
65666;BME280;52365;47.464;18.976;2023-05-11T01:20:29;99852.59;;;15.27;46.45
65666;BME280;52365;47.464;18.976;2023-05-11T01:20:53;99862.06;;;15.38;46.28
65666;BME280;52365;47.464;18.976;2023-05-11T01:21:15;99858.47;;;15.20;46.51
65666;BME280;52365;47.464;18.976;2023-05-11T01:21:38;99856.13;;;15.39;46.32
65666;BME280;52365;47.464;18.976;2023-05-11T01:22:03;99859.00;;;15.24;46.59
65666;BME280;52365;47.464;18.976;2023-05-11T01:23:33;99853.59;;;14.93;47.70
65666;BME280;52365;47.464;18.976;2023-05-11T01:25:27;99848.72;;;15.40;46.16
65666;BME280;52365;47.464;18.976;2023-05-11T01:28:09;99855.91;;;15.43;46.21
65666;BME280;52365;47.464;18.976;2023-05-11T01:30:54;99851.94;;;15.38;46.08
65666;BME280;52365;47.464;18.976;2023-05-11T01:31:08;99848.41;;;15.64;45.61
65666;BME280;52365;47.464;18.976;2023-05-11T01:31:32;99858.78;;;15.65;45.33
65666;BME280;52365;47.464;18.976;2023-05-11T01:31:55;99852.06;;;15.55;45.60
65666;BME280;52365;47.464;18.976;2023-05-11T01:32:25;99853.25;;;15.54;45.68
65666;BME280;52365;47.464;18.976;2023-05-11T01:32:47;99859.34;;;15.38;46.06
65666;BME280;52365;47.464;18.976;2023-05-11T01:33:09;99854.44;;;15.42;46.08
65666;BME280;52365;47.464;18.976;2023-05-11T01:33:33;99865.16;;;15.62;45.78
65666;BME280;52365;47.464;18.976;2023-05-11T01:33:58;99854.66;;;15.38;45.84
65666;BME280;52365;47.464;18.976;2023-05-11T01:34:24;99859.88;;;15.42;46.02
65666;BME280;52365;47.464;18.976;2023-05-11T01:34:47;99855.53;;;15.61;45.60
65666;BME280;52365;47.464;18.976;2023-05-11T01:35:16;99855.97;;;15.54;45.57
65666;BME280;52365;47.464;18.976;2023-05-11T01:35:41;99846.22;;;15.36;46.09
65666;BME280;52365;47.464;18.976;2023-05-11T01:36:06;99858.03;;;15.27;46.07
65666;BME280;52365;47.464;18.976;2023-05-11T01:36:32;99855.56;;;15.24;46.33
65666;BME280;52365;47.464;18.976;2023-05-11T01:37:15;99853.91;;;15.38;46.11
65666;BME280;52365;47.464;18.976;2023-05-11T01:37:40;99854.88;;;15.72;45.47
65666;BME280;52365;47.464;18.976;2023-05-11T01:38:09;99853.16;;;15.74;45.26
65666;BME280;52365;47.464;18.976;2023-05-11T01:38:33;99856.87;;;15.77;45.33
65666;BME280;52365;47.464;18.976;2023-05-11T01:38:58;99847.13;;;16.07;44.68
65666;BME280;52365;47.464;18.976;2023-05-11T01:39:25;99853.25;;;15.91;44.92
65666;BME280;52365;47.464;18.976;2023-05-11T01:39:52;99850.59;;;16.14;44.58
65666;BME280;52365;47.464;18.976;2023-05-11T01:40:16;99851.03;;;15.95;44.81
65666;BME280;52365;47.464;18.976;2023-05-11T01:40:40;99847.53;;;15.83;45.10
65666;BME280;52365;47.464;18.976;2023-05-11T01:41:09;99853.78;;;15.58;45.79
65666;BME280;52365;47.464;18.976;2023-05-11T01:41:33;99852.50;;;15.91;45.24
65666;BME280;52365;47.464;18.976;2023-05-11T01:41:52;99855.25;;;16.02;44.84
65666;BME280;52365;47.464;18.976;2023-05-11T01:42:16;99854.75;;;15.98;45.01
65666;BME280;52365;47.464;18.976;2023-05-11T01:42:41;99862.94;;;16.03;44.83
65666;BME280;52365;47.464;18.976;2023-05-11T01:43:04;99854.72;;;15.86;45.23
65666;BME280;52365;47.464;18.976;2023-05-11T01:43:29;99845.53;;;15.84;45.20
65666;BME280;52365;47.464;18.976;2023-05-11T01:43:56;99853.22;;;15.85;45.24
65666;BME280;52365;47.464;18.976;2023-05-11T01:44:19;99853.63;;;15.67;45.45
65666;BME280;52365;47.464;18.976;2023-05-11T01:44:43;99855.44;;;15.44;46.14
65666;BME280;52365;47.464;18.976;2023-05-11T01:45:09;99854.31;;;15.25;46.48
65666;BME280;52365;47.464;18.976;2023-05-11T01:45:34;99849.97;;;15.39;46.42
65666;BME280;52365;47.464;18.976;2023-05-11T01:45:59;99854.06;;;15.60;45.96
65666;BME280;52365;47.464;18.976;2023-05-11T01:46:24;99855.03;;;15.62;45.88
65666;BME280;52365;47.464;18.976;2023-05-11T01:46:46;99851.47;;;15.82;45.59
65666;BME280;52365;47.464;18.976;2023-05-11T01:47:03;99851.53;;;15.94;45.15
65666;BME280;52365;47.464;18.976;2023-05-11T01:47:27;99853.75;;;15.90;45.19
65666;BME280;52365;47.464;18.976;2023-05-11T01:47:49;99851.47;;;15.82;45.30
65666;BME280;52365;47.464;18.976;2023-05-11T01:48:15;99844.75;;;15.72;45.54
65666;BME280;52365;47.464;18.976;2023-05-11T01:48:43;99850.59;;;15.59;46.00
65666;BME280;52365;47.464;18.976;2023-05-11T01:49:06;99847.81;;;15.54;46.20
65666;BME280;52365;47.464;18.976;2023-05-11T01:49:29;99848.78;;;15.14;46.95
65666;BME280;52365;47.464;18.976;2023-05-11T01:49:53;99854.28;;;15.19;46.98
65666;BME280;52365;47.464;18.976;2023-05-11T01:50:18;99857.56;;;15.29;46.85
65666;BME280;52365;47.464;18.976;2023-05-11T01:50:42;99848.84;;;15.19;47.08
65666;BME280;52365;47.464;18.976;2023-05-11T01:51:04;99848.19;;;15.30;46.92
65666;BME280;52365;47.464;18.976;2023-05-11T01:51:29;99856.00;;;15.22;47.08
65666;BME280;52365;47.464;18.976;2023-05-11T01:51:53;99852.94;;;15.41;46.70
65666;BME280;52365;47.464;18.976;2023-05-11T01:52:17;99848.25;;;15.41;46.68
65666;BME280;52365;47.464;18.976;2023-05-11T01:52:41;99848.31;;;15.52;46.23
65666;BME280;52365;47.464;18.976;2023-05-11T01:53:03;99849.69;;;15.68;45.76
65666;BME280;52365;47.464;18.976;2023-05-11T01:53:30;99848.84;;;15.56;46.06
65666;BME280;52365;47.464;18.976;2023-05-11T01:53:53;99848.34;;;15.58;45.83
65666;BME280;52365;47.464;18.976;2023-05-11T01:54:16;99845.62;;;15.58;45.99
65666;BME280;52365;47.464;18.976;2023-05-11T01:54:35;99849.06;;;15.53;46.13
65666;BME280;52365;47.464;18.976;2023-05-11T01:54:59;99853.00;;;15.52;46.33
65666;BME280;52365;47.464;18.976;2023-05-11T01:55:22;99850.84;;;15.61;46.05
65666;BME280;52365;47.464;18.976;2023-05-11T01:55:46;99843.34;;;15.45;46.50
65666;BME280;52365;47.464;18.976;2023-05-11T01:56:03;99849.78;;;15.48;46.34
65666;BME280;52365;47.464;18.976;2023-05-11T01:56:26;99848.87;;;15.25;46.88
65666;BME280;52365;47.464;18.976;2023-05-11T01:56:48;99854.44;;;15.10;47.35
65666;BME280;52365;47.464;18.976;2023-05-11T01:57:05;99853.63;;;14.98;47.74
65666;BME280;52365;47.464;18.976;2023-05-11T01:57:27;99850.69;;;15.02;47.81
65666;BME280;52365;47.464;18.976;2023-05-11T01:57:52;99854.19;;;15.08;47.90
65666;BME280;52365;47.464;18.976;2023-05-11T01:58:14;99859.25;;;15.26;47.20
65666;BME280;52365;47.464;18.976;2023-05-11T01:58:37;99847.47;;;15.35;47.03
65666;BME280;52365;47.464;18.976;2023-05-11T01:58:55;99850.41;;;15.31;46.99
65666;BME280;52365;47.464;18.976;2023-05-11T01:59:17;99847.56;;;15.46;46.80
65666;BME280;52365;47.464;18.976;2023-05-11T01:59:39;99847.50;;;15.41;46.78
65666;BME280;52365;47.464;18.976;2023-05-11T02:00:01;99849.22;;;15.38;46.76
65666;BME280;52365;47.464;18.976;2023-05-11T02:00:23;99855.94;;;15.48;46.52
65666;BME280;52365;47.464;18.976;2023-05-11T02:00:45;99848.31;;;15.52;46.34
65666;BME280;52365;47.464;18.976;2023-05-11T02:01:08;99851.84;;;15.27;46.86
65666;BME280;52365;47.464;18.976;2023-05-11T02:01:32;99849.19;;;15.01;47.62
65666;BME280;52365;47.464;18.976;2023-05-11T02:01:56;99848.44;;;15.00;47.76
65666;BME280;52365;47.464;18.976;2023-05-11T02:02:13;99850.59;;;14.91;47.94
65666;BME280;52365;47.464;18.976;2023-05-11T02:02:35;99846.94;;;14.94;48.04
65666;BME280;52365;47.464;18.976;2023-05-11T02:02:56;99850.34;;;14.89;48.25
65666;BME280;52365;47.464;18.976;2023-05-11T02:03:19;99845.66;;;14.63;48.82
65666;BME280;52365;47.464;18.976;2023-05-11T02:03:41;99847.94;;;14.70;48.88
65666;BME280;52365;47.464;18.976;2023-05-11T02:04:04;99841.50;;;14.94;48.32
65666;BME280;52365;47.464;18.976;2023-05-11T02:04:28;99850.06;;;14.86;48.43
65666;BME280;52365;47.464;18.976;2023-05-11T02:04:45;99844.16;;;15.20;47.72
65666;BME280;52365;47.464;18.976;2023-05-11T02:05:08;99850.88;;;15.24;47.49
65666;BME280;52365;47.464;18.976;2023-05-11T02:05:30;99847.16;;;15.27;47.49
65666;BME280;52365;47.464;18.976;2023-05-11T02:05:53;99841.66;;;15.53;46.87
65666;BME280;52365;47.464;18.976;2023-05-11T02:06:15;99843.44;;;15.19;47.39
65666;BME280;52365;47.464;18.976;2023-05-11T02:06:38;99842.06;;;15.41;47.18
65666;BME280;52365;47.464;18.976;2023-05-11T02:07:01;99838.53;;;15.23;47.22
65666;BME280;52365;47.464;18.976;2023-05-11T02:07:23;99837.06;;;15.28;47.44
65666;BME280;52365;47.464;18.976;2023-05-11T02:07:44;99846.00;;;15.40;47.14
65666;BME280;52365;47.464;18.976;2023-05-11T02:08:06;99839.88;;;15.45;46.96
65666;BME280;52365;47.464;18.976;2023-05-11T02:08:29;99850.59;;;15.22;47.27
65666;BME280;52365;47.464;18.976;2023-05-11T02:08:52;99841.72;;;15.27;47.21
65666;BME280;52365;47.464;18.976;2023-05-11T02:09:15;99847.13;;;15.59;46.69
65666;BME280;52365;47.464;18.976;2023-05-11T02:09:37;99841.78;;;15.76;46.25